This is the latest recevied weather packets stored in our database for station/object VK2BNC-13. If no packets are shown the sender has not sent any weather packets the latest 10 day(s).
| Time | Temp. | Humidity | Pressure | Rain* | Wind** | Luminosity | Snow |
|---|---|---|---|---|---|---|---|
| 1778047482 | 22.78° C | 55% | - | 0 mm | - | - | - |
| 1778046580 | 22.78° C | 55% | - | 0 mm | - | - | - |
| 1778045680 | 22.78° C | 56% | - | 0 mm | - | - | - |
| 1778044777 | 22.78° C | 55% | - | 0 mm | - | - | - |
| 1778043878 | 22.78° C | 54% | - | 0 mm | - | - | - |
| 1778042978 | 22.78° C | 55% | - | 0 mm | - | - | - |
| 1778042072 | 22.22° C | 57% | - | 0 mm | - | - | - |
| 1778041172 | 22.22° C | 58% | - | 0 mm | - | - | - |
| 1778040270 | 22.22° C | 59% | - | 0 mm | - | - | - |
| 1778039368 | 22.22° C | 59% | - | 0 mm | - | - | - |
| 1778038467 | 22.22° C | 58% | - | 0 mm | - | - | - |
| 1778037561 | 22.22° C | 57% | - | 0 mm | - | - | - |
| 1778036661 | 22.22° C | 58% | - | 0 mm | - | - | - |
| 1778035762 | 21.67° C | 58% | - | 0 mm | - | - | - |
| 1778034860 | 21.67° C | 56% | - | 0 mm | - | - | - |
| 1778033961 | 21.11° C | 58% | - | 0 mm | - | - | - |
| 1778033054 | 20.56° C | 61% | - | 0 mm | - | - | - |
| 1778032155 | 20° C | 60% | - | 0 mm | - | - | - |
| 1778031254 | 18.89° C | 62% | - | 0 mm | - | - | - |
| 1778030352 | 18.89° C | 64% | - | 0 mm | - | - | - |
| 1778029451 | 18.33° C | 68% | - | 0 mm | - | - | - |
| 1778028550 | 17.78° C | 69% | - | 0 mm | - | - | - |
| 1778027650 | 17.22° C | 72% | - | 0 mm | - | - | - |
| 1778026750 | 16.11° C | 74% | - | 0 mm | - | - | - |
| 1778025850 | 15.56° C | 78% | - | 0 mm | - | - | - |
* Rain latest hour (hover to see other rain measurements)
** Current wind speed in m/s (hover to see current wind gust speed)